sensor_id;sensor_type;location;lat;lon;timestamp;P1;durP1;ratioP1;P2;durP2;ratioP2
74904;SDS011;63465;50.862;6.220;2022-11-21T00:01:00;11.03;;;2.70;;
74904;SDS011;63465;50.862;6.220;2022-11-21T00:03:37;11.80;;;3.07;;
74904;SDS011;63465;50.862;6.220;2022-11-21T00:06:04;10.40;;;3.10;;
74904;SDS011;63465;50.862;6.220;2022-11-21T00:08:30;15.20;;;3.10;;
74904;SDS011;63465;50.862;6.220;2022-11-21T00:10:57;9.57;;;2.70;;
74904;SDS011;63465;50.862;6.220;2022-11-21T00:13:25;18.30;;;3.00;;
74904;SDS011;63465;50.862;6.220;2022-11-21T00:15:53;9.87;;;3.20;;
74904;SDS011;63465;50.862;6.220;2022-11-21T00:18:20;15.67;;;3.30;;
74904;SDS011;63465;50.862;6.220;2022-11-21T00:20:46;8.93;;;2.93;;
74904;SDS011;63465;50.862;6.220;2022-11-21T00:23:13;13.53;;;3.50;;
74904;SDS011;63465;50.862;6.220;2022-11-21T00:25:39;6.40;;;2.97;;
74904;SDS011;63465;50.862;6.220;2022-11-21T00:28:06;20.63;;;3.00;;
74904;SDS011;63465;50.862;6.220;2022-11-21T00:30:33;11.43;;;3.20;;
74904;SDS011;63465;50.862;6.220;2022-11-21T00:33:01;12.43;;;3.67;;
74904;SDS011;63465;50.862;6.220;2022-11-21T00:35:27;18.00;;;3.80;;
74904;SDS011;63465;50.862;6.220;2022-11-21T00:37:56;13.50;;;2.90;;
74904;SDS011;63465;50.862;6.220;2022-11-21T00:40:22;13.73;;;3.63;;
74904;SDS011;63465;50.862;6.220;2022-11-21T00:42:49;7.00;;;2.53;;
74904;SDS011;63465;50.862;6.220;2022-11-21T00:45:16;11.63;;;2.77;;
74904;SDS011;63465;50.862;6.220;2022-11-21T00:47:42;13.63;;;2.60;;
74904;SDS011;63465;50.862;6.220;2022-11-21T00:50:10;7.27;;;3.10;;
74904;SDS011;63465;50.862;6.220;2022-11-21T00:52:37;10.57;;;2.97;;
74904;SDS011;63465;50.862;6.220;2022-11-21T00:55:04;16.60;;;3.70;;
74904;SDS011;63465;50.862;6.220;2022-11-21T00:57:31;5.30;;;2.53;;
74904;SDS011;63465;50.862;6.220;2022-11-21T00:59:57;8.20;;;1.90;;
74904;SDS011;63465;50.862;6.220;2022-11-21T01:02:24;5.50;;;1.80;;
74904;SDS011;63465;50.862;6.220;2022-11-21T01:04:50;4.97;;;1.53;;
74904;SDS011;63465;50.862;6.220;2022-11-21T01:07:18;4.40;;;2.00;;
74904;SDS011;63465;50.862;6.220;2022-11-21T01:09:45;8.30;;;2.40;;
74904;SDS011;63465;50.862;6.220;2022-11-21T01:12:12;7.40;;;2.80;;
74904;SDS011;63465;50.862;6.220;2022-11-21T01:14:39;10.27;;;2.57;;
74904;SDS011;63465;50.862;6.220;2022-11-21T01:17:05;6.77;;;2.90;;
74904;SDS011;63465;50.862;6.220;2022-11-21T01:19:32;12.67;;;3.40;;
74904;SDS011;63465;50.862;6.220;2022-11-21T01:21:59;9.23;;;2.70;;
74904;SDS011;63465;50.862;6.220;2022-11-21T01:24:27;8.60;;;3.03;;
74904;SDS011;63465;50.862;6.220;2022-11-21T01:26:53;8.87;;;2.83;;
74904;SDS011;63465;50.862;6.220;2022-11-21T01:29:20;9.93;;;3.10;;
74904;SDS011;63465;50.862;6.220;2022-11-21T01:31:47;13.63;;;2.37;;
74904;SDS011;63465;50.862;6.220;2022-11-21T01:34:14;16.17;;;2.70;;
74904;SDS011;63465;50.862;6.220;2022-11-21T01:36:41;14.40;;;2.90;;
74904;SDS011;63465;50.862;6.220;2022-11-21T01:39:09;26.07;;;4.10;;
74904;SDS011;63465;50.862;6.220;2022-11-21T01:41:38;6.90;;;2.87;;
74904;SDS011;63465;50.862;6.220;2022-11-21T01:44:09;7.70;;;2.73;;
74904;SDS011;63465;50.862;6.220;2022-11-21T01:46:40;13.70;;;2.90;;
74904;SDS011;63465;50.862;6.220;2022-11-21T01:49:08;9.93;;;3.20;;
74904;SDS011;63465;50.862;6.220;2022-11-21T01:51:38;8.10;;;2.33;;
74904;SDS011;63465;50.862;6.220;2022-11-21T01:54:09;11.87;;;3.00;;
74904;SDS011;63465;50.862;6.220;2022-11-21T01:56:42;7.47;;;2.77;;
74904;SDS011;63465;50.862;6.220;2022-11-21T01:59:13;13.67;;;2.90;;
74904;SDS011;63465;50.862;6.220;2022-11-21T02:01:45;6.03;;;2.90;;
74904;SDS011;63465;50.862;6.220;2022-11-21T02:04:16;5.17;;;2.20;;
74904;SDS011;63465;50.862;6.220;2022-11-21T02:06:43;6.77;;;2.80;;
74904;SDS011;63465;50.862;6.220;2022-11-21T02:09:10;4.50;;;2.07;;
74904;SDS011;63465;50.862;6.220;2022-11-21T02:11:37;6.77;;;2.10;;
74904;SDS011;63465;50.862;6.220;2022-11-21T02:14:10;6.97;;;3.00;;
74904;SDS011;63465;50.862;6.220;2022-11-21T02:16:37;11.10;;;2.20;;
74904;SDS011;63465;50.862;6.220;2022-11-21T02:19:04;8.27;;;2.00;;
74904;SDS011;63465;50.862;6.220;2022-11-21T02:21:38;7.00;;;2.07;;
74904;SDS011;63465;50.862;6.220;2022-11-21T02:24:16;7.90;;;1.87;;
74904;SDS011;63465;50.862;6.220;2022-11-21T02:26:49;6.93;;;2.43;;
74904;SDS011;63465;50.862;6.220;2022-11-21T02:29:16;4.73;;;2.20;;
74904;SDS011;63465;50.862;6.220;2022-11-21T02:31:43;8.40;;;2.87;;
74904;SDS011;63465;50.862;6.220;2022-11-21T02:34:10;5.70;;;2.57;;
74904;SDS011;63465;50.862;6.220;2022-11-21T02:36:41;7.43;;;2.30;;
74904;SDS011;63465;50.862;6.220;2022-11-21T02:39:10;7.37;;;2.77;;
74904;SDS011;63465;50.862;6.220;2022-11-21T02:41:42;5.57;;;2.77;;
74904;SDS011;63465;50.862;6.220;2022-11-21T02:44:19;9.50;;;3.00;;
74904;SDS011;63465;50.862;6.220;2022-11-21T02:46:50;10.17;;;3.50;;
74904;SDS011;63465;50.862;6.220;2022-11-21T02:49:20;11.77;;;3.20;;
74904;SDS011;63465;50.862;6.220;2022-11-21T02:51:53;10.60;;;3.47;;
74904;SDS011;63465;50.862;6.220;2022-11-21T02:54:20;7.20;;;3.20;;
74904;SDS011;63465;50.862;6.220;2022-11-21T02:56:46;8.27;;;3.97;;
74904;SDS011;63465;50.862;6.220;2022-11-21T02:59:13;8.33;;;4.50;;
74904;SDS011;63465;50.862;6.220;2022-11-21T03:01:41;20.27;;;5.23;;
74904;SDS011;63465;50.862;6.220;2022-11-21T03:04:07;14.37;;;4.87;;
74904;SDS011;63465;50.862;6.220;2022-11-21T03:06:34;13.67;;;5.57;;
74904;SDS011;63465;50.862;6.220;2022-11-21T03:09:01;12.50;;;5.10;;
74904;SDS011;63465;50.862;6.220;2022-11-21T03:11:27;13.67;;;5.90;;
74904;SDS011;63465;50.862;6.220;2022-11-21T03:13:54;9.20;;;5.77;;
74904;SDS011;63465;50.862;6.220;2022-11-21T03:16:21;14.87;;;7.07;;
74904;SDS011;63465;50.862;6.220;2022-11-21T03:18:49;16.23;;;6.30;;
74904;SDS011;63465;50.862;6.220;2022-11-21T03:21:15;15.97;;;7.03;;
74904;SDS011;63465;50.862;6.220;2022-11-21T03:23:42;14.70;;;6.83;;
74904;SDS011;63465;50.862;6.220;2022-11-21T03:26:09;15.50;;;7.57;;
74904;SDS011;63465;50.862;6.220;2022-11-21T03:28:35;25.57;;;7.00;;
74904;SDS011;63465;50.862;6.220;2022-11-21T03:31:02;11.67;;;6.20;;
74904;SDS011;63465;50.862;6.220;2022-11-21T03:33:29;14.27;;;6.50;;
74904;SDS011;63465;50.862;6.220;2022-11-21T03:35:57;11.07;;;6.20;;
74904;SDS011;63465;50.862;6.220;2022-11-21T03:38:23;11.07;;;6.60;;
74904;SDS011;63465;50.862;6.220;2022-11-21T03:40:50;13.93;;;6.57;;
74904;SDS011;63465;50.862;6.220;2022-11-21T03:43:17;10.67;;;5.90;;
74904;SDS011;63465;50.862;6.220;2022-11-21T03:45:44;12.13;;;6.30;;
74904;SDS011;63465;50.862;6.220;2022-11-21T03:48:11;15.23;;;6.77;;
74904;SDS011;63465;50.862;6.220;2022-11-21T03:50:40;11.53;;;6.27;;
74904;SDS011;63465;50.862;6.220;2022-11-21T03:53:09;13.57;;;6.37;;
74904;SDS011;63465;50.862;6.220;2022-11-21T03:55:36;14.70;;;5.80;;
74904;SDS011;63465;50.862;6.220;2022-11-21T03:58:02;11.43;;;6.07;;
74904;SDS011;63465;50.862;6.220;2022-11-21T04:00:29;12.10;;;6.53;;
74904;SDS011;63465;50.862;6.220;2022-11-21T04:02:56;12.90;;;6.17;;
74904;SDS011;63465;50.862;6.220;2022-11-21T04:05:22;12.57;;;6.90;;
74904;SDS011;63465;50.862;6.220;2022-11-21T04:07:49;17.40;;;6.00;;
74904;SDS011;63465;50.862;6.220;2022-11-21T04:10:18;22.97;;;5.70;;
74904;SDS011;63465;50.862;6.220;2022-11-21T04:12:45;9.30;;;5.77;;
74904;SDS011;63465;50.862;6.220;2022-11-21T04:15:11;20.90;;;6.03;;
74904;SDS011;63465;50.862;6.220;2022-11-21T04:17:38;15.17;;;5.77;;
74904;SDS011;63465;50.862;6.220;2022-11-21T04:20:05;9.73;;;5.67;;
74904;SDS011;63465;50.862;6.220;2022-11-21T04:22:32;14.27;;;6.03;;
74904;SDS011;63465;50.862;6.220;2022-11-21T04:24:58;14.87;;;6.13;;
74904;SDS011;63465;50.862;6.220;2022-11-21T04:27:26;9.63;;;6.07;;
74904;SDS011;63465;50.862;6.220;2022-11-21T04:29:53;12.97;;;5.70;;
74904;SDS011;63465;50.862;6.220;2022-11-21T04:32:20;14.40;;;6.83;;
74904;SDS011;63465;50.862;6.220;2022-11-21T04:34:46;18.30;;;6.50;;
74904;SDS011;63465;50.862;6.220;2022-11-21T04:37:13;15.37;;;6.23;;
74904;SDS011;63465;50.862;6.220;2022-11-21T04:39:40;15.00;;;6.80;;
74904;SDS011;63465;50.862;6.220;2022-11-21T04:42:06;9.37;;;5.70;;
74904;SDS011;63465;50.862;6.220;2022-11-21T04:44:34;11.10;;;6.03;;
74904;SDS011;63465;50.862;6.220;2022-11-21T04:47:01;11.53;;;6.70;;
74904;SDS011;63465;50.862;6.220;2022-11-21T04:49:28;19.37;;;5.70;;
74904;SDS011;63465;50.862;6.220;2022-11-21T04:51:54;17.47;;;5.90;;
74904;SDS011;63465;50.862;6.220;2022-11-21T04:54:21;11.60;;;5.70;;
74904;SDS011;63465;50.862;6.220;2022-11-21T04:56:47;11.97;;;6.10;;
74904;SDS011;63465;50.862;6.220;2022-11-21T04:59:14;7.40;;;5.63;;
74904;SDS011;63465;50.862;6.220;2022-11-21T05:01:42;11.77;;;6.57;;
74904;SDS011;63465;50.862;6.220;2022-11-21T05:04:09;8.73;;;5.63;;
74904;SDS011;63465;50.862;6.220;2022-11-21T05:06:35;19.50;;;6.03;;
74904;SDS011;63465;50.862;6.220;2022-11-21T05:09:02;11.57;;;6.43;;
74904;SDS011;63465;50.862;6.220;2022-11-21T05:11:29;10.30;;;5.60;;
74904;SDS011;63465;50.862;6.220;2022-11-21T05:14:13;8.10;;;5.30;;
74904;SDS011;63465;50.862;6.220;2022-11-21T05:16:40;16.33;;;6.40;;
74904;SDS011;63465;50.862;6.220;2022-11-21T05:19:08;9.97;;;6.50;;
74904;SDS011;63465;50.862;6.220;2022-11-21T05:21:35;16.47;;;6.60;;
74904;SDS011;63465;50.862;6.220;2022-11-21T05:24:02;8.33;;;6.00;;
74904;SDS011;63465;50.862;6.220;2022-11-21T05:26:28;14.30;;;7.00;;
74904;SDS011;63465;50.862;6.220;2022-11-21T05:28:55;9.60;;;5.80;;
74904;SDS011;63465;50.862;6.220;2022-11-21T05:31:22;13.60;;;6.30;;
74904;SDS011;63465;50.862;6.220;2022-11-21T05:33:48;17.83;;;6.00;;
74904;SDS011;63465;50.862;6.220;2022-11-21T05:36:16;17.50;;;7.40;;
74904;SDS011;63465;50.862;6.220;2022-11-21T05:38:43;14.43;;;7.00;;
74904;SDS011;63465;50.862;6.220;2022-11-21T05:41:10;16.63;;;7.60;;
74904;SDS011;63465;50.862;6.220;2022-11-21T05:43:36;26.00;;;8.83;;
74904;SDS011;63465;50.862;6.220;2022-11-21T05:46:11;17.80;;;6.97;;
74904;SDS011;63465;50.862;6.220;2022-11-21T05:48:38;15.33;;;7.13;;
74904;SDS011;63465;50.862;6.220;2022-11-21T05:51:05;16.03;;;8.00;;
74904;SDS011;63465;50.862;6.220;2022-11-21T05:53:33;18.43;;;6.90;;
74904;SDS011;63465;50.862;6.220;2022-11-21T05:56:01;11.27;;;6.50;;
74904;SDS011;63465;50.862;6.220;2022-11-21T05:58:29;9.47;;;6.53;;
74904;SDS011;63465;50.862;6.220;2022-11-21T06:00:56;15.13;;;6.70;;
74904;SDS011;63465;50.862;6.220;2022-11-21T06:03:23;9.63;;;6.10;;
74904;SDS011;63465;50.862;6.220;2022-11-21T06:05:52;15.10;;;6.70;;
74904;SDS011;63465;50.862;6.220;2022-11-21T06:08:23;8.17;;;5.87;;
74904;SDS011;63465;50.862;6.220;2022-11-21T06:10:51;18.33;;;7.10;;
74904;SDS011;63465;50.862;6.220;2022-11-21T06:13:18;25.67;;;7.10;;
74904;SDS011;63465;50.862;6.220;2022-11-21T06:15:49;12.10;;;6.67;;
74904;SDS011;63465;50.862;6.220;2022-11-21T06:18:17;11.67;;;6.23;;
74904;SDS011;63465;50.862;6.220;2022-11-21T06:20:45;10.63;;;7.13;;
74904;SDS011;63465;50.862;6.220;2022-11-21T06:23:11;19.10;;;7.57;;
74904;SDS011;63465;50.862;6.220;2022-11-21T06:25:38;11.10;;;7.57;;
74904;SDS011;63465;50.862;6.220;2022-11-21T06:28:06;17.37;;;7.63;;
74904;SDS011;63465;50.862;6.220;2022-11-21T06:30:33;15.97;;;7.47;;
74904;SDS011;63465;50.862;6.220;2022-11-21T06:33:02;10.80;;;6.43;;
74904;SDS011;63465;50.862;6.220;2022-11-21T06:35:30;15.10;;;6.87;;
74904;SDS011;63465;50.862;6.220;2022-11-21T06:37:57;14.60;;;7.07;;
74904;SDS011;63465;50.862;6.220;2022-11-21T06:40:25;14.43;;;7.10;;
74904;SDS011;63465;50.862;6.220;2022-11-21T06:42:51;18.10;;;7.33;;
74904;SDS011;63465;50.862;6.220;2022-11-21T06:45:19;13.87;;;7.10;;
74904;SDS011;63465;50.862;6.220;2022-11-21T06:47:46;14.53;;;7.60;;
74904;SDS011;63465;50.862;6.220;2022-11-21T06:50:13;17.10;;;7.30;;
74904;SDS011;63465;50.862;6.220;2022-11-21T06:52:39;11.57;;;6.93;;
74904;SDS011;63465;50.862;6.220;2022-11-21T06:55:06;12.17;;;7.57;;
74904;SDS011;63465;50.862;6.220;2022-11-21T06:57:34;13.70;;;8.03;;
74904;SDS011;63465;50.862;6.220;2022-11-21T07:00:01;14.10;;;7.63;;
74904;SDS011;63465;50.862;6.220;2022-11-21T07:02:30;14.23;;;7.30;;
74904;SDS011;63465;50.862;6.220;2022-11-21T07:04:57;16.83;;;8.03;;
74904;SDS011;63465;50.862;6.220;2022-11-21T07:07:24;14.63;;;8.47;;
74904;SDS011;63465;50.862;6.220;2022-11-21T07:09:50;23.17;;;9.20;;
74904;SDS011;63465;50.862;6.220;2022-11-21T07:12:17;18.07;;;9.40;;
74904;SDS011;63465;50.862;6.220;2022-11-21T07:15:01;17.23;;;9.20;;
74904;SDS011;63465;50.862;6.220;2022-11-21T07:17:28;17.03;;;9.80;;
74904;SDS011;63465;50.862;6.220;2022-11-21T07:19:56;17.03;;;10.27;;
74904;SDS011;63465;50.862;6.220;2022-11-21T07:22:23;22.97;;;10.10;;
74904;SDS011;63465;50.862;6.220;2022-11-21T07:24:49;14.40;;;8.83;;
74904;SDS011;63465;50.862;6.220;2022-11-21T07:27:16;20.80;;;9.90;;
74904;SDS011;63465;50.862;6.220;2022-11-21T07:29:43;19.20;;;10.23;;
74904;SDS011;63465;50.862;6.220;2022-11-21T07:32:09;16.67;;;9.50;;
74904;SDS011;63465;50.862;6.220;2022-11-21T07:34:36;21.47;;;10.27;;
74904;SDS011;63465;50.862;6.220;2022-11-21T07:37:04;21.70;;;10.00;;
74904;SDS011;63465;50.862;6.220;2022-11-21T07:39:31;22.13;;;10.80;;
74904;SDS011;63465;50.862;6.220;2022-11-21T07:41:57;17.07;;;10.13;;
74904;SDS011;63465;50.862;6.220;2022-11-21T07:44:24;21.40;;;9.63;;
74904;SDS011;63465;50.862;6.220;2022-11-21T07:46:52;17.37;;;9.87;;
74904;SDS011;63465;50.862;6.220;2022-11-21T07:49:19;20.37;;;9.17;;
74904;SDS011;63465;50.862;6.220;2022-11-21T07:51:46;21.80;;;10.07;;
74904;SDS011;63465;50.862;6.220;2022-11-21T07:54:14;15.90;;;9.33;;
74904;SDS011;63465;50.862;6.220;2022-11-21T07:56:41;15.27;;;9.20;;
74904;SDS011;63465;50.862;6.220;2022-11-21T07:59:07;17.43;;;8.97;;
74904;SDS011;63465;50.862;6.220;2022-11-21T08:01:34;17.70;;;7.60;;
74904;SDS011;63465;50.862;6.220;2022-11-21T08:04:00;14.87;;;8.30;;
74904;SDS011;63465;50.862;6.220;2022-11-21T08:06:27;17.03;;;7.57;;
74904;SDS011;63465;50.862;6.220;2022-11-21T08:08:54;14.73;;;8.00;;
74904;SDS011;63465;50.862;6.220;2022-11-21T08:11:22;13.40;;;8.37;;
74904;SDS011;63465;50.862;6.220;2022-11-21T08:13:50;12.90;;;7.40;;
74904;SDS011;63465;50.862;6.220;2022-11-21T08:16:16;13.53;;;7.57;;
74904;SDS011;63465;50.862;6.220;2022-11-21T08:18:43;13.20;;;7.27;;
74904;SDS011;63465;50.862;6.220;2022-11-21T08:21:09;9.70;;;6.57;;
74904;SDS011;63465;50.862;6.220;2022-11-21T08:23:36;17.00;;;8.20;;
74904;SDS011;63465;50.862;6.220;2022-11-21T08:26:03;13.63;;;6.97;;
74904;SDS011;63465;50.862;6.220;2022-11-21T08:28:31;17.47;;;7.93;;
74904;SDS011;63465;50.862;6.220;2022-11-21T08:30:57;13.47;;;8.23;;
74904;SDS011;63465;50.862;6.220;2022-11-21T08:33:24;22.83;;;7.10;;
74904;SDS011;63465;50.862;6.220;2022-11-21T08:35:51;29.63;;;8.47;;
74904;SDS011;63465;50.862;6.220;2022-11-21T08:38:18;12.10;;;7.60;;
74904;SDS011;63465;50.862;6.220;2022-11-21T08:40:44;11.30;;;7.40;;
74904;SDS011;63465;50.862;6.220;2022-11-21T08:43:11;14.97;;;7.47;;
74904;SDS011;63465;50.862;6.220;2022-11-21T08:45:39;12.87;;;6.60;;
74904;SDS011;63465;50.862;6.220;2022-11-21T08:48:08;21.03;;;7.80;;
74904;SDS011;63465;50.862;6.220;2022-11-21T08:50:36;8.67;;;6.23;;
74904;SDS011;63465;50.862;6.220;2022-11-21T08:53:03;11.10;;;6.40;;
74904;SDS011;63465;50.862;6.220;2022-11-21T08:55:29;8.50;;;5.60;;
74904;SDS011;63465;50.862;6.220;2022-11-21T08:57:56;14.90;;;5.00;;
74904;SDS011;63465;50.862;6.220;2022-11-21T09:00:23;5.53;;;4.50;;
74904;SDS011;63465;50.862;6.220;2022-11-21T09:02:51;9.33;;;4.40;;
74904;SDS011;63465;50.862;6.220;2022-11-21T09:05:18;6.57;;;4.23;;
74904;SDS011;63465;50.862;6.220;2022-11-21T09:07:45;7.60;;;4.13;;
74904;SDS011;63465;50.862;6.220;2022-11-21T09:10:12;11.63;;;4.03;;
74904;SDS011;63465;50.862;6.220;2022-11-21T09:12:39;7.33;;;3.90;;
74904;SDS011;63465;50.862;6.220;2022-11-21T09:15:08;6.80;;;4.30;;
74904;SDS011;63465;50.862;6.220;2022-11-21T09:17:54;9.57;;;4.10;;
74904;SDS011;63465;50.862;6.220;2022-11-21T09:20:28;7.00;;;4.30;;
74904;SDS011;63465;50.862;6.220;2022-11-21T09:22:55;5.47;;;3.67;;
74904;SDS011;63465;50.862;6.220;2022-11-21T09:25:22;7.03;;;3.33;;
74904;SDS011;63465;50.862;6.220;2022-11-21T09:27:49;4.03;;;3.10;;
74904;SDS011;63465;50.862;6.220;2022-11-21T09:30:15;9.33;;;3.50;;
74904;SDS011;63465;50.862;6.220;2022-11-21T09:32:42;4.37;;;3.07;;
74904;SDS011;63465;50.862;6.220;2022-11-21T09:35:10;3.57;;;2.90;;
74904;SDS011;63465;50.862;6.220;2022-11-21T09:37:37;7.70;;;3.03;;
74904;SDS011;63465;50.862;6.220;2022-11-21T09:40:05;7.30;;;2.40;;
74904;SDS011;63465;50.862;6.220;2022-11-21T09:42:39;7.67;;;2.10;;
74904;SDS011;63465;50.862;6.220;2022-11-21T09:45:22;9.87;;;2.00;;
74904;SDS011;63465;50.862;6.220;2022-11-21T09:47:52;3.27;;;2.10;;
74904;SDS011;63465;50.862;6.220;2022-11-21T09:50:25;3.23;;;2.37;;
74904;SDS011;63465;50.862;6.220;2022-11-21T09:52:57;3.67;;;2.10;;
74904;SDS011;63465;50.862;6.220;2022-11-21T09:55:31;6.67;;;1.80;;
74904;SDS011;63465;50.862;6.220;2022-11-21T09:58:05;4.83;;;2.00;;
74904;SDS011;63465;50.862;6.220;2022-11-21T10:00:41;9.60;;;2.07;;
74904;SDS011;63465;50.862;6.220;2022-11-21T10:03:07;6.63;;;1.70;;
74904;SDS011;63465;50.862;6.220;2022-11-21T10:05:40;6.20;;;1.80;;
74904;SDS011;63465;50.862;6.220;2022-11-21T10:08:16;2.70;;;1.70;;
74904;SDS011;63465;50.862;6.220;2022-11-21T10:10:52;2.97;;;1.97;;
74904;SDS011;63465;50.862;6.220;2022-11-21T10:13:25;7.43;;;1.43;;
74904;SDS011;63465;50.862;6.220;2022-11-21T10:16:04;4.53;;;1.60;;
74904;SDS011;63465;50.862;6.220;2022-11-21T10:18:52;2.83;;;1.60;;
74904;SDS011;63465;50.862;6.220;2022-11-21T10:21:35;2.90;;;1.47;;
74904;SDS011;63465;50.862;6.220;2022-11-21T10:24:32;4.20;;;1.50;;
74904;SDS011;63465;50.862;6.220;2022-11-21T10:27:06;5.70;;;1.70;;
74904;SDS011;63465;50.862;6.220;2022-11-21T10:29:40;3.37;;;1.30;;
74904;SDS011;63465;50.862;6.220;2022-11-21T10:32:15;9.20;;;1.30;;
74904;SDS011;63465;50.862;6.220;2022-11-21T10:34:47;2.30;;;0.90;;
74904;SDS011;63465;50.862;6.220;2022-11-21T10:37:24;6.70;;;1.77;;
74904;SDS011;63465;50.862;6.220;2022-11-21T10:39:54;3.93;;;1.30;;
74904;SDS011;63465;50.862;6.220;2022-11-21T10:42:27;6.83;;;1.40;;
74904;SDS011;63465;50.862;6.220;2022-11-21T10:44:58;5.20;;;1.33;;
74904;SDS011;63465;50.862;6.220;2022-11-21T10:47:44;4.10;;;1.50;;
74904;SDS011;63465;50.862;6.220;2022-11-21T10:50:22;5.20;;;1.33;;
74904;SDS011;63465;50.862;6.220;2022-11-21T10:53:02;1.30;;;1.17;;
74904;SDS011;63465;50.862;6.220;2022-11-21T10:55:59;3.83;;;1.23;;
74904;SDS011;63465;50.862;6.220;2022-11-21T10:58:33;1.47;;;1.10;;
74904;SDS011;63465;50.862;6.220;2022-11-21T11:01:02;1.27;;;0.90;;
74904;SDS011;63465;50.862;6.220;2022-11-21T11:03:29;1.10;;;1.10;;
74904;SDS011;63465;50.862;6.220;2022-11-21T11:05:58;3.83;;;1.53;;
74904;SDS011;63465;50.862;6.220;2022-11-21T11:08:26;2.63;;;1.03;;
74904;SDS011;63465;50.862;6.220;2022-11-21T11:11:03;2.10;;;1.50;;
74904;SDS011;63465;50.862;6.220;2022-11-21T11:13:32;2.83;;;1.00;;
74904;SDS011;63465;50.862;6.220;2022-11-21T11:16:14;1.93;;;1.00;;
74904;SDS011;63465;50.862;6.220;2022-11-21T11:18:45;3.23;;;1.60;;
74904;SDS011;63465;50.862;6.220;2022-11-21T11:21:16;3.10;;;1.10;;
74904;SDS011;63465;50.862;6.220;2022-11-21T11:23:46;3.27;;;0.90;;
74904;SDS011;63465;50.862;6.220;2022-11-21T11:26:19;3.70;;;1.10;;
74904;SDS011;63465;50.862;6.220;2022-11-21T11:28:48;1.77;;;1.20;;
74904;SDS011;63465;50.862;6.220;2022-11-21T11:31:14;1.23;;;1.10;;
74904;SDS011;63465;50.862;6.220;2022-11-21T11:33:48;1.80;;;1.20;;
74904;SDS011;63465;50.862;6.220;2022-11-21T11:36:19;1.40;;;1.17;;
74904;SDS011;63465;50.862;6.220;2022-11-21T11:38:58;0.93;;;0.93;;
74904;SDS011;63465;50.862;6.220;2022-11-21T11:41:33;1.27;;;0.70;;
74904;SDS011;63465;50.862;6.220;2022-11-21T11:44:31;1.07;;;0.97;;
74904;SDS011;63465;50.862;6.220;2022-11-21T11:47:28;1.23;;;1.00;;
74904;SDS011;63465;50.862;6.220;2022-11-21T11:50:02;3.30;;;0.97;;
74904;SDS011;63465;50.862;6.220;2022-11-21T11:52:42;2.80;;;1.23;;
74904;SDS011;63465;50.862;6.220;2022-11-21T11:55:20;3.03;;;1.00;;
74904;SDS011;63465;50.862;6.220;2022-11-21T11:57:52;2.60;;;0.97;;
74904;SDS011;63465;50.862;6.220;2022-11-21T12:00:24;0.90;;;0.90;;
74904;SDS011;63465;50.862;6.220;2022-11-21T12:02:59;1.10;;;1.00;;
74904;SDS011;63465;50.862;6.220;2022-11-21T12:05:29;1.87;;;0.77;;
74904;SDS011;63465;50.862;6.220;2022-11-21T12:08:08;4.20;;;1.23;;
74904;SDS011;63465;50.862;6.220;2022-11-21T12:10:42;1.10;;;1.00;;
74904;SDS011;63465;50.862;6.220;2022-11-21T12:13:30;1.50;;;1.10;;
74904;SDS011;63465;50.862;6.220;2022-11-21T12:16:01;1.27;;;0.80;;
74904;SDS011;63465;50.862;6.220;2022-11-21T12:18:32;1.67;;;1.20;;
74904;SDS011;63465;50.862;6.220;2022-11-21T12:21:06;4.47;;;1.57;;
74904;SDS011;63465;50.862;6.220;2022-11-21T12:23:40;1.07;;;0.90;;
74904;SDS011;63465;50.862;6.220;2022-11-21T12:26:16;1.10;;;0.97;;
74904;SDS011;63465;50.862;6.220;2022-11-21T12:28:54;1.10;;;1.00;;
74904;SDS011;63465;50.862;6.220;2022-11-21T12:31:31;1.60;;;1.50;;
74904;SDS011;63465;50.862;6.220;2022-11-21T12:34:11;3.90;;;1.53;;
74904;SDS011;63465;50.862;6.220;2022-11-21T12:36:48;3.50;;;1.30;;
74904;SDS011;63465;50.862;6.220;2022-11-21T12:39:35;3.53;;;1.00;;
74904;SDS011;63465;50.862;6.220;2022-11-21T12:42:31;2.40;;;1.10;;
74904;SDS011;63465;50.862;6.220;2022-11-21T12:45:22;2.00;;;1.03;;
74904;SDS011;63465;50.862;6.220;2022-11-21T12:51:29;5.73;;;1.53;;
74904;SDS011;63465;50.862;6.220;2022-11-21T12:57:30;1.20;;;1.10;;
74904;SDS011;63465;50.862;6.220;2022-11-21T13:00:05;6.00;;;1.70;;
74904;SDS011;63465;50.862;6.220;2022-11-21T13:02:48;2.60;;;1.90;;
74904;SDS011;63465;50.862;6.220;2022-11-21T13:05:28;2.03;;;1.20;;
74904;SDS011;63465;50.862;6.220;2022-11-21T13:07:58;8.07;;;2.00;;
74904;SDS011;63465;50.862;6.220;2022-11-21T13:10:27;3.50;;;1.40;;
74904;SDS011;63465;50.862;6.220;2022-11-21T13:12:57;3.67;;;2.10;;
74904;SDS011;63465;50.862;6.220;2022-11-21T13:15:32;3.53;;;1.47;;
74904;SDS011;63465;50.862;6.220;2022-11-21T13:18:12;5.43;;;1.90;;
74904;SDS011;63465;50.862;6.220;2022-11-21T13:20:45;5.47;;;2.03;;
74904;SDS011;63465;50.862;6.220;2022-11-21T13:26:01;6.60;;;2.93;;
74904;SDS011;63465;50.862;6.220;2022-11-21T13:28:33;10.63;;;2.67;;
74904;SDS011;63465;50.862;6.220;2022-11-21T13:31:01;12.63;;;2.40;;
74904;SDS011;63465;50.862;6.220;2022-11-21T13:33:50;4.63;;;2.77;;
74904;SDS011;63465;50.862;6.220;2022-11-21T13:36:33;4.20;;;2.43;;
74904;SDS011;63465;50.862;6.220;2022-11-21T13:42:09;8.37;;;2.23;;
74904;SDS011;63465;50.862;6.220;2022-11-21T13:44:56;6.53;;;2.17;;
74904;SDS011;63465;50.862;6.220;2022-11-21T13:50:33;6.80;;;2.67;;
74904;SDS011;63465;50.862;6.220;2022-11-21T13:56:07;3.63;;;1.83;;
74904;SDS011;63465;50.862;6.220;2022-11-21T13:58:48;3.63;;;1.63;;
74904;SDS011;63465;50.862;6.220;2022-11-21T14:01:29;5.13;;;1.93;;
74904;SDS011;63465;50.862;6.220;2022-11-21T14:04:22;1.63;;;1.57;;
74904;SDS011;63465;50.862;6.220;2022-11-21T14:09:48;2.67;;;1.70;;
74904;SDS011;63465;50.862;6.220;2022-11-21T14:12:18;8.07;;;2.00;;
74904;SDS011;63465;50.862;6.220;2022-11-21T14:14:48;4.30;;;1.67;;
74904;SDS011;63465;50.862;6.220;2022-11-21T14:17:22;4.50;;;1.70;;
74904;SDS011;63465;50.862;6.220;2022-11-21T14:19:58;5.43;;;1.73;;
74904;SDS011;63465;50.862;6.220;2022-11-21T14:22:30;9.53;;;2.50;;
74904;SDS011;63465;50.862;6.220;2022-11-21T14:25:00;5.23;;;2.50;;
74904;SDS011;63465;50.862;6.220;2022-11-21T14:27:34;5.07;;;2.37;;
74904;SDS011;63465;50.862;6.220;2022-11-21T14:30:05;6.83;;;2.00;;
74904;SDS011;63465;50.862;6.220;2022-11-21T14:32:33;3.53;;;2.07;;
74904;SDS011;63465;50.862;6.220;2022-11-21T14:35:06;14.70;;;2.17;;
74904;SDS011;63465;50.862;6.220;2022-11-21T14:37:34;9.67;;;2.73;;
74904;SDS011;63465;50.862;6.220;2022-11-21T14:40:08;2.47;;;1.43;;
74904;SDS011;63465;50.862;6.220;2022-11-21T14:42:37;7.00;;;2.30;;
74904;SDS011;63465;50.862;6.220;2022-11-21T14:45:12;8.27;;;2.20;;
74904;SDS011;63465;50.862;6.220;2022-11-21T14:47:48;11.30;;;3.00;;
74904;SDS011;63465;50.862;6.220;2022-11-21T14:50:23;5.27;;;2.60;;
74904;SDS011;63465;50.862;6.220;2022-11-21T14:52:51;8.63;;;2.77;;
74904;SDS011;63465;50.862;6.220;2022-11-21T14:55:22;12.50;;;2.60;;
74904;SDS011;63465;50.862;6.220;2022-11-21T14:57:52;8.97;;;3.80;;
74904;SDS011;63465;50.862;6.220;2022-11-21T15:00:20;6.47;;;2.40;;
74904;SDS011;63465;50.862;6.220;2022-11-21T15:02:51;4.43;;;2.40;;
74904;SDS011;63465;50.862;6.220;2022-11-21T15:05:19;7.40;;;2.80;;
74904;SDS011;63465;50.862;6.220;2022-11-21T15:07:47;13.27;;;3.73;;
74904;SDS011;63465;50.862;6.220;2022-11-21T15:10:15;10.90;;;3.13;;
74904;SDS011;63465;50.862;6.220;2022-11-21T15:12:45;12.10;;;3.07;;
74904;SDS011;63465;50.862;6.220;2022-11-21T15:15:21;4.37;;;2.43;;
74904;SDS011;63465;50.862;6.220;2022-11-21T15:17:54;7.10;;;3.77;;
74904;SDS011;63465;50.862;6.220;2022-11-21T15:20:22;6.07;;;2.40;;